sensor_id;sensor_type;location;lat;lon;timestamp;temperature;humidity
20204;DHT22;10261;49.010;12.034;2023-02-01T00:00:49;5.80;99.90
20204;DHT22;10261;49.010;12.034;2023-02-01T00:01:51;5.80;99.90
20204;DHT22;10261;49.010;12.034;2023-02-01T00:02:54;5.80;99.90
20204;DHT22;10261;49.010;12.034;2023-02-01T00:03:57;5.80;99.90
20204;DHT22;10261;49.010;12.034;2023-02-01T00:04:59;5.80;99.90
20204;DHT22;10261;49.010;12.034;2023-02-01T00:06:02;5.70;99.90
20204;DHT22;10261;49.010;12.034;2023-02-01T00:07:06;5.80;99.90
20204;DHT22;10261;49.010;12.034;2023-02-01T00:08:09;5.70;99.90
20204;DHT22;10261;49.010;12.034;2023-02-01T00:09:11;5.70;99.90
20204;DHT22;10261;49.010;12.034;2023-02-01T00:10:14;5.70;99.90
20204;DHT22;10261;49.010;12.034;2023-02-01T00:11:16;5.80;99.90
20204;DHT22;10261;49.010;12.034;2023-02-01T00:12:19;5.80;99.90
20204;DHT22;10261;49.010;12.034;2023-02-01T00:13:21;5.80;99.90
20204;DHT22;10261;49.010;12.034;2023-02-01T00:14:23;5.80;99.90
20204;DHT22;10261;49.010;12.034;2023-02-01T00:15:25;5.80;99.90
20204;DHT22;10261;49.010;12.034;2023-02-01T00:16:29;5.70;99.90
20204;DHT22;10261;49.010;12.034;2023-02-01T00:17:31;5.80;99.90
20204;DHT22;10261;49.010;12.034;2023-02-01T00:18:35;5.80;99.90
20204;DHT22;10261;49.010;12.034;2023-02-01T00:19:37;5.80;99.90
20204;DHT22;10261;49.010;12.034;2023-02-01T00:20:45;5.80;99.90
20204;DHT22;10261;49.010;12.034;2023-02-01T00:21:47;5.80;99.90
20204;DHT22;10261;49.010;12.034;2023-02-01T00:22:51;5.80;99.90
20204;DHT22;10261;49.010;12.034;2023-02-01T00:23:53;5.70;99.90
20204;DHT22;10261;49.010;12.034;2023-02-01T00:24:56;5.70;99.90
20204;DHT22;10261;49.010;12.034;2023-02-01T00:26:00;5.70;99.90
20204;DHT22;10261;49.010;12.034;2023-02-01T00:27:03;5.70;99.90
20204;DHT22;10261;49.010;12.034;2023-02-01T00:28:06;5.80;99.90
20204;DHT22;10261;49.010;12.034;2023-02-01T00:29:11;5.80;99.90
20204;DHT22;10261;49.010;12.034;2023-02-01T00:30:14;5.70;99.90
20204;DHT22;10261;49.010;12.034;2023-02-01T00:31:17;5.70;99.90
20204;DHT22;10261;49.010;12.034;2023-02-01T00:32:20;5.70;99.90
20204;DHT22;10261;49.010;12.034;2023-02-01T00:33:22;5.70;99.90
20204;DHT22;10261;49.010;12.034;2023-02-01T00:34:24;5.70;99.90
20204;DHT22;10261;49.010;12.034;2023-02-01T00:35:26;5.70;99.90
20204;DHT22;10261;49.010;12.034;2023-02-01T00:36:29;5.70;99.90
20204;DHT22;10261;49.010;12.034;2023-02-01T00:37:31;5.60;99.90
20204;DHT22;10261;49.010;12.034;2023-02-01T00:38:37;5.70;99.90
20204;DHT22;10261;49.010;12.034;2023-02-01T00:39:39;5.60;99.90
20204;DHT22;10261;49.010;12.034;2023-02-01T00:40:42;5.70;99.90
20204;DHT22;10261;49.010;12.034;2023-02-01T00:41:44;5.60;99.90
20204;DHT22;10261;49.010;12.034;2023-02-01T00:42:47;5.70;99.90
20204;DHT22;10261;49.010;12.034;2023-02-01T00:43:50;5.70;99.90
20204;DHT22;10261;49.010;12.034;2023-02-01T00:44:53;5.70;99.90
20204;DHT22;10261;49.010;12.034;2023-02-01T00:45:55;5.60;99.90
20204;DHT22;10261;49.010;12.034;2023-02-01T00:46:58;5.70;99.90
20204;DHT22;10261;49.010;12.034;2023-02-01T00:48:00;5.70;99.90
20204;DHT22;10261;49.010;12.034;2023-02-01T00:49:03;5.80;99.90
20204;DHT22;10261;49.010;12.034;2023-02-01T00:50:06;5.70;99.90
20204;DHT22;10261;49.010;12.034;2023-02-01T00:51:11;5.70;99.90
20204;DHT22;10261;49.010;12.034;2023-02-01T00:52:13;5.70;99.90
20204;DHT22;10261;49.010;12.034;2023-02-01T00:53:16;5.80;99.90
20204;DHT22;10261;49.010;12.034;2023-02-01T00:54:19;5.80;99.90
20204;DHT22;10261;49.010;12.034;2023-02-01T00:55:22;5.80;99.90
20204;DHT22;10261;49.010;12.034;2023-02-01T00:56:24;5.80;99.90
20204;DHT22;10261;49.010;12.034;2023-02-01T00:57:29;5.80;99.90
20204;DHT22;10261;49.010;12.034;2023-02-01T00:58:32;5.80;99.90
20204;DHT22;10261;49.010;12.034;2023-02-01T00:59:35;5.80;99.90
20204;DHT22;10261;49.010;12.034;2023-02-01T01:00:37;5.80;99.90
20204;DHT22;10261;49.010;12.034;2023-02-01T01:01:40;5.80;99.90
20204;DHT22;10261;49.010;12.034;2023-02-01T01:02:43;5.80;99.90
20204;DHT22;10261;49.010;12.034;2023-02-01T01:03:47;5.80;99.90
20204;DHT22;10261;49.010;12.034;2023-02-01T01:04:52;5.70;99.90
20204;DHT22;10261;49.010;12.034;2023-02-01T01:05:56;5.70;99.90
20204;DHT22;10261;49.010;12.034;2023-02-01T01:07:00;5.80;99.90
20204;DHT22;10261;49.010;12.034;2023-02-01T01:08:03;5.70;99.90
20204;DHT22;10261;49.010;12.034;2023-02-01T01:09:07;5.70;99.90
20204;DHT22;10261;49.010;12.034;2023-02-01T01:10:11;5.70;99.90
20204;DHT22;10261;49.010;12.034;2023-02-01T01:11:16;5.80;99.90
20204;DHT22;10261;49.010;12.034;2023-02-01T01:12:19;5.80;99.90
20204;DHT22;10261;49.010;12.034;2023-02-01T01:13:21;5.80;99.90
20204;DHT22;10261;49.010;12.034;2023-02-01T01:14:24;5.90;99.90
20204;DHT22;10261;49.010;12.034;2023-02-01T01:15:26;5.80;99.90
20204;DHT22;10261;49.010;12.034;2023-02-01T01:16:30;5.80;99.90
20204;DHT22;10261;49.010;12.034;2023-02-01T01:17:32;5.80;99.90
20204;DHT22;10261;49.010;12.034;2023-02-01T01:18:36;5.90;99.90
20204;DHT22;10261;49.010;12.034;2023-02-01T01:19:38;5.80;99.90
20204;DHT22;10261;49.010;12.034;2023-02-01T01:20:41;5.80;99.90
20204;DHT22;10261;49.010;12.034;2023-02-01T01:21:43;5.80;99.90
20204;DHT22;10261;49.010;12.034;2023-02-01T01:22:46;5.90;99.90
20204;DHT22;10261;49.010;12.034;2023-02-01T01:23:48;5.90;99.90
20204;DHT22;10261;49.010;12.034;2023-02-01T01:24:51;5.80;99.90
20204;DHT22;10261;49.010;12.034;2023-02-01T01:25:54;5.80;99.90
20204;DHT22;10261;49.010;12.034;2023-02-01T01:26:57;5.90;99.90
20204;DHT22;10261;49.010;12.034;2023-02-01T01:27:59;5.90;99.90
20204;DHT22;10261;49.010;12.034;2023-02-01T01:29:03;5.90;99.90
20204;DHT22;10261;49.010;12.034;2023-02-01T01:30:06;5.90;99.90
20204;DHT22;10261;49.010;12.034;2023-02-01T01:31:09;5.90;99.90
20204;DHT22;10261;49.010;12.034;2023-02-01T01:32:13;5.90;99.90
20204;DHT22;10261;49.010;12.034;2023-02-01T01:33:15;5.90;99.90
20204;DHT22;10261;49.010;12.034;2023-02-01T01:34:18;5.90;99.90
20204;DHT22;10261;49.010;12.034;2023-02-01T01:35:19;5.80;99.90
20204;DHT22;10261;49.010;12.034;2023-02-01T01:36:23;5.80;99.90
20204;DHT22;10261;49.010;12.034;2023-02-01T01:37:25;5.80;99.90
20204;DHT22;10261;49.010;12.034;2023-02-01T01:38:28;5.90;99.90
20204;DHT22;10261;49.010;12.034;2023-02-01T01:39:30;5.90;99.90
20204;DHT22;10261;49.010;12.034;2023-02-01T01:40:33;5.90;99.90
20204;DHT22;10261;49.010;12.034;2023-02-01T01:41:36;5.80;99.90
20204;DHT22;10261;49.010;12.034;2023-02-01T01:42:41;5.80;99.90
20204;DHT22;10261;49.010;12.034;2023-02-01T01:43:48;5.80;99.90
20204;DHT22;10261;49.010;12.034;2023-02-01T01:45:05;5.80;99.90
20204;DHT22;10261;49.010;12.034;2023-02-01T01:46:08;5.90;99.90
20204;DHT22;10261;49.010;12.034;2023-02-01T01:47:10;5.90;99.90
20204;DHT22;10261;49.010;12.034;2023-02-01T01:48:16;5.90;99.90
20204;DHT22;10261;49.010;12.034;2023-02-01T01:49:21;5.90;99.90
20204;DHT22;10261;49.010;12.034;2023-02-01T01:50:29;5.90;99.90
20204;DHT22;10261;49.010;12.034;2023-02-01T01:51:34;5.90;99.90
20204;DHT22;10261;49.010;12.034;2023-02-01T01:52:39;5.90;99.90
20204;DHT22;10261;49.010;12.034;2023-02-01T01:53:46;6.00;99.90
20204;DHT22;10261;49.010;12.034;2023-02-01T01:54:52;6.00;99.90
20204;DHT22;10261;49.010;12.034;2023-02-01T01:55:56;6.00;99.90
20204;DHT22;10261;49.010;12.034;2023-02-01T01:57:03;5.90;99.90
20204;DHT22;10261;49.010;12.034;2023-02-01T01:58:08;6.00;99.90
20204;DHT22;10261;49.010;12.034;2023-02-01T01:59:12;6.00;99.90
20204;DHT22;10261;49.010;12.034;2023-02-01T02:00:17;6.00;99.90
20204;DHT22;10261;49.010;12.034;2023-02-01T02:01:22;5.90;99.90
20204;DHT22;10261;49.010;12.034;2023-02-01T02:02:24;5.90;99.90
20204;DHT22;10261;49.010;12.034;2023-02-01T02:03:31;5.90;99.90
20204;DHT22;10261;49.010;12.034;2023-02-01T02:04:35;5.90;99.90
20204;DHT22;10261;49.010;12.034;2023-02-01T02:05:39;5.90;99.90
20204;DHT22;10261;49.010;12.034;2023-02-01T02:06:43;5.90;99.90
20204;DHT22;10261;49.010;12.034;2023-02-01T02:07:51;5.80;99.90
20204;DHT22;10261;49.010;12.034;2023-02-01T02:08:54;5.90;99.90
20204;DHT22;10261;49.010;12.034;2023-02-01T02:09:57;5.90;99.90
20204;DHT22;10261;49.010;12.034;2023-02-01T02:11:02;5.90;99.90
20204;DHT22;10261;49.010;12.034;2023-02-01T02:12:06;5.90;99.90
20204;DHT22;10261;49.010;12.034;2023-02-01T02:13:08;6.00;99.90
20204;DHT22;10261;49.010;12.034;2023-02-01T02:14:13;5.90;99.90
20204;DHT22;10261;49.010;12.034;2023-02-01T02:15:18;5.80;99.90
20204;DHT22;10261;49.010;12.034;2023-02-01T02:16:38;5.90;99.90
20204;DHT22;10261;49.010;12.034;2023-02-01T02:17:48;5.90;99.90
20204;DHT22;10261;49.010;12.034;2023-02-01T02:19:10;6.00;99.90
20204;DHT22;10261;49.010;12.034;2023-02-01T02:20:39;6.00;99.90
20204;DHT22;10261;49.010;12.034;2023-02-01T02:22:02;6.00;99.90
20204;DHT22;10261;49.010;12.034;2023-02-01T02:25:21;6.00;99.90
20204;DHT22;10261;49.010;12.034;2023-02-01T02:26:35;6.00;99.90
20204;DHT22;10261;49.010;12.034;2023-02-01T02:27:48;6.00;99.90
20204;DHT22;10261;49.010;12.034;2023-02-01T02:29:28;6.00;99.90
20204;DHT22;10261;49.010;12.034;2023-02-01T02:31:12;6.10;99.90
20204;DHT22;10261;49.010;12.034;2023-02-01T02:32:38;6.00;99.90
20204;DHT22;10261;49.010;12.034;2023-02-01T02:33:57;6.00;99.90
20204;DHT22;10261;49.010;12.034;2023-02-01T02:35:05;6.10;99.90
20204;DHT22;10261;49.010;12.034;2023-02-01T02:36:17;6.10;99.90
20204;DHT22;10261;49.010;12.034;2023-02-01T02:37:31;6.00;99.90
20204;DHT22;10261;49.010;12.034;2023-02-01T02:38:44;6.00;99.90
20204;DHT22;10261;49.010;12.034;2023-02-01T02:39:56;6.10;99.90
20204;DHT22;10261;49.010;12.034;2023-02-01T02:41:08;6.00;99.90
20204;DHT22;10261;49.010;12.034;2023-02-01T02:42:15;6.10;99.90
20204;DHT22;10261;49.010;12.034;2023-02-01T02:43:43;6.10;99.90
20204;DHT22;10261;49.010;12.034;2023-02-01T02:45:09;6.10;99.90
20204;DHT22;10261;49.010;12.034;2023-02-01T02:46:36;6.00;99.90
20204;DHT22;10261;49.010;12.034;2023-02-01T02:48:04;6.00;99.90
20204;DHT22;10261;49.010;12.034;2023-02-01T02:49:14;5.90;99.90
20204;DHT22;10261;49.010;12.034;2023-02-01T02:50:22;5.90;99.90
20204;DHT22;10261;49.010;12.034;2023-02-01T02:51:47;5.80;99.90
20204;DHT22;10261;49.010;12.034;2023-02-01T02:53:12;5.90;99.90
20204;DHT22;10261;49.010;12.034;2023-02-01T02:54:36;5.90;99.90
20204;DHT22;10261;49.010;12.034;2023-02-01T02:55:50;5.90;99.90
20204;DHT22;10261;49.010;12.034;2023-02-01T02:56:55;5.80;99.90
20204;DHT22;10261;49.010;12.034;2023-02-01T02:58:17;5.90;99.90
20204;DHT22;10261;49.010;12.034;2023-02-01T02:59:39;5.90;99.90
20204;DHT22;10261;49.010;12.034;2023-02-01T03:01:01;5.90;99.90
20204;DHT22;10261;49.010;12.034;2023-02-01T03:02:23;5.90;99.90
20204;DHT22;10261;49.010;12.034;2023-02-01T03:03:45;5.80;99.90
20204;DHT22;10261;49.010;12.034;2023-02-01T03:05:11;5.90;99.90
20204;DHT22;10261;49.010;12.034;2023-02-01T03:06:15;5.80;99.90
20204;DHT22;10261;49.010;12.034;2023-02-01T03:09:08;5.90;99.90
20204;DHT22;10261;49.010;12.034;2023-02-01T03:10:18;5.90;99.90
20204;DHT22;10261;49.010;12.034;2023-02-01T03:11:25;5.90;99.90
20204;DHT22;10261;49.010;12.034;2023-02-01T03:12:50;5.80;99.90
20204;DHT22;10261;49.010;12.034;2023-02-01T03:14:00;5.80;99.90
20204;DHT22;10261;49.010;12.034;2023-02-01T03:15:08;5.80;99.90
20204;DHT22;10261;49.010;12.034;2023-02-01T03:16:17;5.80;99.90
20204;DHT22;10261;49.010;12.034;2023-02-01T03:17:24;5.90;99.90
20204;DHT22;10261;49.010;12.034;2023-02-01T03:18:33;5.90;99.90
20204;DHT22;10261;49.010;12.034;2023-02-01T03:19:40;5.80;99.90
20204;DHT22;10261;49.010;12.034;2023-02-01T03:20:52;5.80;99.90
20204;DHT22;10261;49.010;12.034;2023-02-01T03:21:58;5.90;99.90
20204;DHT22;10261;49.010;12.034;2023-02-01T03:23:02;5.90;99.90
20204;DHT22;10261;49.010;12.034;2023-02-01T03:24:08;5.90;99.90
20204;DHT22;10261;49.010;12.034;2023-02-01T03:25:17;5.90;99.90
20204;DHT22;10261;49.010;12.034;2023-02-01T03:26:25;5.90;99.90
20204;DHT22;10261;49.010;12.034;2023-02-01T03:27:32;5.90;99.90
20204;DHT22;10261;49.010;12.034;2023-02-01T03:28:36;5.90;99.90
20204;DHT22;10261;49.010;12.034;2023-02-01T03:29:47;5.90;99.90
20204;DHT22;10261;49.010;12.034;2023-02-01T03:30:50;5.90;99.90
20204;DHT22;10261;49.010;12.034;2023-02-01T03:32:03;5.90;99.90
20204;DHT22;10261;49.010;12.034;2023-02-01T03:33:07;5.90;99.90
20204;DHT22;10261;49.010;12.034;2023-02-01T03:34:15;5.90;99.90
20204;DHT22;10261;49.010;12.034;2023-02-01T03:35:18;5.90;99.90
20204;DHT22;10261;49.010;12.034;2023-02-01T03:36:28;6.00;99.90
20204;DHT22;10261;49.010;12.034;2023-02-01T03:37:34;5.90;99.90
20204;DHT22;10261;49.010;12.034;2023-02-01T03:38:39;5.90;99.90
20204;DHT22;10261;49.010;12.034;2023-02-01T03:39:47;5.90;99.90
20204;DHT22;10261;49.010;12.034;2023-02-01T03:40:56;5.90;99.90
20204;DHT22;10261;49.010;12.034;2023-02-01T03:42:02;5.90;99.90
20204;DHT22;10261;49.010;12.034;2023-02-01T03:43:09;6.00;99.90
20204;DHT22;10261;49.010;12.034;2023-02-01T03:44:16;6.00;99.90
20204;DHT22;10261;49.010;12.034;2023-02-01T03:45:26;6.00;99.90
20204;DHT22;10261;49.010;12.034;2023-02-01T03:46:32;6.10;99.90
20204;DHT22;10261;49.010;12.034;2023-02-01T03:47:39;6.00;99.90
20204;DHT22;10261;49.010;12.034;2023-02-01T03:48:43;6.00;99.90
20204;DHT22;10261;49.010;12.034;2023-02-01T03:49:50;5.90;99.90
20204;DHT22;10261;49.010;12.034;2023-02-01T03:50:57;6.00;99.90
20204;DHT22;10261;49.010;12.034;2023-02-01T03:52:05;6.00;99.90
20204;DHT22;10261;49.010;12.034;2023-02-01T03:53:12;6.00;99.90
20204;DHT22;10261;49.010;12.034;2023-02-01T03:54:17;6.00;99.90
20204;DHT22;10261;49.010;12.034;2023-02-01T03:55:22;6.00;99.90
20204;DHT22;10261;49.010;12.034;2023-02-01T03:56:27;6.00;99.90
20204;DHT22;10261;49.010;12.034;2023-02-01T03:57:33;6.00;99.90
20204;DHT22;10261;49.010;12.034;2023-02-01T03:58:37;6.00;99.90
20204;DHT22;10261;49.010;12.034;2023-02-01T03:59:40;6.00;99.90
20204;DHT22;10261;49.010;12.034;2023-02-01T04:00:45;6.00;99.90
20204;DHT22;10261;49.010;12.034;2023-02-01T04:01:48;6.00;99.90
20204;DHT22;10261;49.010;12.034;2023-02-01T04:02:51;6.00;99.90
20204;DHT22;10261;49.010;12.034;2023-02-01T04:03:54;6.00;99.90
20204;DHT22;10261;49.010;12.034;2023-02-01T04:04:57;6.00;99.90
20204;DHT22;10261;49.010;12.034;2023-02-01T04:05:58;6.10;99.90
20204;DHT22;10261;49.010;12.034;2023-02-01T04:07:03;6.10;99.90
20204;DHT22;10261;49.010;12.034;2023-02-01T04:08:05;6.10;99.90
20204;DHT22;10261;49.010;12.034;2023-02-01T04:09:08;6.10;99.90
20204;DHT22;10261;49.010;12.034;2023-02-01T04:10:12;6.00;99.90
20204;DHT22;10261;49.010;12.034;2023-02-01T04:11:14;6.00;99.90
20204;DHT22;10261;49.010;12.034;2023-02-01T04:12:17;6.00;99.90
20204;DHT22;10261;49.010;12.034;2023-02-01T04:13:19;6.00;99.90
20204;DHT22;10261;49.010;12.034;2023-02-01T04:14:22;6.00;99.90
20204;DHT22;10261;49.010;12.034;2023-02-01T04:15:24;6.00;99.90
20204;DHT22;10261;49.010;12.034;2023-02-01T04:16:27;6.10;99.90
20204;DHT22;10261;49.010;12.034;2023-02-01T04:17:29;6.10;99.90
20204;DHT22;10261;49.010;12.034;2023-02-01T04:18:32;6.10;99.90
20204;DHT22;10261;49.010;12.034;2023-02-01T04:19:34;6.10;99.90
20204;DHT22;10261;49.010;12.034;2023-02-01T04:20:37;6.10;99.90
20204;DHT22;10261;49.010;12.034;2023-02-01T04:21:39;6.10;99.90
20204;DHT22;10261;49.010;12.034;2023-02-01T04:22:43;6.10;99.90
20204;DHT22;10261;49.010;12.034;2023-02-01T04:23:46;6.20;99.90
20204;DHT22;10261;49.010;12.034;2023-02-01T04:24:49;6.20;99.90
20204;DHT22;10261;49.010;12.034;2023-02-01T04:25:50;6.20;99.90
20204;DHT22;10261;49.010;12.034;2023-02-01T04:26:53;6.20;99.90
20204;DHT22;10261;49.010;12.034;2023-02-01T04:27:55;6.20;99.90
20204;DHT22;10261;49.010;12.034;2023-02-01T04:28:58;6.20;99.90
20204;DHT22;10261;49.010;12.034;2023-02-01T04:30:00;6.20;99.90
20204;DHT22;10261;49.010;12.034;2023-02-01T04:31:04;6.10;99.90
20204;DHT22;10261;49.010;12.034;2023-02-01T04:32:06;6.10;99.90
20204;DHT22;10261;49.010;12.034;2023-02-01T04:33:09;6.10;99.90
20204;DHT22;10261;49.010;12.034;2023-02-01T04:34:11;6.20;99.90
20204;DHT22;10261;49.010;12.034;2023-02-01T04:35:14;6.20;99.90
20204;DHT22;10261;49.010;12.034;2023-02-01T04:36:16;6.20;99.90
20204;DHT22;10261;49.010;12.034;2023-02-01T04:37:21;6.20;99.90
20204;DHT22;10261;49.010;12.034;2023-02-01T04:38:25;6.20;99.90
20204;DHT22;10261;49.010;12.034;2023-02-01T04:39:28;6.20;99.90
20204;DHT22;10261;49.010;12.034;2023-02-01T04:40:31;6.20;99.90
20204;DHT22;10261;49.010;12.034;2023-02-01T04:41:33;6.20;99.90
20204;DHT22;10261;49.010;12.034;2023-02-01T04:42:36;6.20;99.90
20204;DHT22;10261;49.010;12.034;2023-02-01T04:43:38;6.20;99.90
20204;DHT22;10261;49.010;12.034;2023-02-01T04:44:41;6.20;99.90
20204;DHT22;10261;49.010;12.034;2023-02-01T04:45:47;6.20;99.90
20204;DHT22;10261;49.010;12.034;2023-02-01T04:46:50;6.20;99.90
20204;DHT22;10261;49.010;12.034;2023-02-01T04:47:52;6.20;99.90
20204;DHT22;10261;49.010;12.034;2023-02-01T04:48:55;6.20;99.90
20204;DHT22;10261;49.010;12.034;2023-02-01T04:49:57;6.30;99.90
20204;DHT22;10261;49.010;12.034;2023-02-01T04:51:00;6.30;99.90
20204;DHT22;10261;49.010;12.034;2023-02-01T04:52:02;6.20;99.90
20204;DHT22;10261;49.010;12.034;2023-02-01T04:53:05;6.20;99.90
20204;DHT22;10261;49.010;12.034;2023-02-01T04:54:09;6.30;99.90
20204;DHT22;10261;49.010;12.034;2023-02-01T04:55:13;6.30;99.90
20204;DHT22;10261;49.010;12.034;2023-02-01T04:56:15;6.30;99.90
20204;DHT22;10261;49.010;12.034;2023-02-01T04:57:17;6.20;99.90
20204;DHT22;10261;49.010;12.034;2023-02-01T04:58:19;6.20;99.90
20204;DHT22;10261;49.010;12.034;2023-02-01T04:59:22;6.30;99.90
20204;DHT22;10261;49.010;12.034;2023-02-01T05:00:24;6.30;99.90
20204;DHT22;10261;49.010;12.034;2023-02-01T05:01:28;6.30;99.90
20204;DHT22;10261;49.010;12.034;2023-02-01T05:02:30;6.30;99.90
20204;DHT22;10261;49.010;12.034;2023-02-01T05:03:34;6.30;99.90
20204;DHT22;10261;49.010;12.034;2023-02-01T05:04:36;6.30;99.90
20204;DHT22;10261;49.010;12.034;2023-02-01T05:05:39;6.30;99.90
20204;DHT22;10261;49.010;12.034;2023-02-01T05:06:41;6.30;99.90
20204;DHT22;10261;49.010;12.034;2023-02-01T05:07:45;6.30;99.90
20204;DHT22;10261;49.010;12.034;2023-02-01T05:08:48;6.30;99.90
20204;DHT22;10261;49.010;12.034;2023-02-01T05:09:53;6.30;99.90
20204;DHT22;10261;49.010;12.034;2023-02-01T05:10:55;6.20;99.90
20204;DHT22;10261;49.010;12.034;2023-02-01T05:11:58;6.20;99.90
20204;DHT22;10261;49.010;12.034;2023-02-01T05:13:18;6.30;99.90
20204;DHT22;10261;49.010;12.034;2023-02-01T05:14:38;6.30;99.90
20204;DHT22;10261;49.010;12.034;2023-02-01T05:15:40;6.30;99.90
20204;DHT22;10261;49.010;12.034;2023-02-01T05:16:43;6.30;99.90
20204;DHT22;10261;49.010;12.034;2023-02-01T05:17:45;6.30;99.90
20204;DHT22;10261;49.010;12.034;2023-02-01T05:18:48;6.30;99.90
20204;DHT22;10261;49.010;12.034;2023-02-01T05:19:50;6.40;99.90
20204;DHT22;10261;49.010;12.034;2023-02-01T05:20:53;6.40;99.90
20204;DHT22;10261;49.010;12.034;2023-02-01T05:21:55;6.40;99.90
20204;DHT22;10261;49.010;12.034;2023-02-01T05:22:59;6.40;99.90
20204;DHT22;10261;49.010;12.034;2023-02-01T05:24:01;6.40;99.90
20204;DHT22;10261;49.010;12.034;2023-02-01T05:25:16;6.30;99.90
20204;DHT22;10261;49.010;12.034;2023-02-01T05:26:20;6.30;99.90
20204;DHT22;10261;49.010;12.034;2023-02-01T05:27:22;6.30;99.90
20204;DHT22;10261;49.010;12.034;2023-02-01T05:28:25;6.30;99.90
20204;DHT22;10261;49.010;12.034;2023-02-01T05:29:27;6.30;99.90
20204;DHT22;10261;49.010;12.034;2023-02-01T05:30:30;6.30;99.90
20204;DHT22;10261;49.010;12.034;2023-02-01T05:31:34;6.30;99.90
20204;DHT22;10261;49.010;12.034;2023-02-01T05:32:37;6.30;99.90
20204;DHT22;10261;49.010;12.034;2023-02-01T05:33:39;6.30;99.90
20204;DHT22;10261;49.010;12.034;2023-02-01T05:34:42;6.40;99.90
20204;DHT22;10261;49.010;12.034;2023-02-01T05:35:44;6.30;99.90
20204;DHT22;10261;49.010;12.034;2023-02-01T05:36:48;6.30;99.90
20204;DHT22;10261;49.010;12.034;2023-02-01T05:37:50;6.40;99.90
20204;DHT22;10261;49.010;12.034;2023-02-01T05:38:52;6.40;99.90
20204;DHT22;10261;49.010;12.034;2023-02-01T05:39:55;6.40;99.90
20204;DHT22;10261;49.010;12.034;2023-02-01T05:40:59;6.40;99.90
20204;DHT22;10261;49.010;12.034;2023-02-01T05:42:01;6.40;99.90
20204;DHT22;10261;49.010;12.034;2023-02-01T05:43:04;6.40;99.90
20204;DHT22;10261;49.010;12.034;2023-02-01T05:44:06;6.30;99.90
20204;DHT22;10261;49.010;12.034;2023-02-01T05:45:10;6.30;99.90
20204;DHT22;10261;49.010;12.034;2023-02-01T05:46:12;6.30;99.90
20204;DHT22;10261;49.010;12.034;2023-02-01T05:47:15;6.30;99.90
20204;DHT22;10261;49.010;12.034;2023-02-01T05:48:17;6.30;99.90
20204;DHT22;10261;49.010;12.034;2023-02-01T05:49:20;6.30;99.90
20204;DHT22;10261;49.010;12.034;2023-02-01T05:50:22;6.30;99.90
20204;DHT22;10261;49.010;12.034;2023-02-01T05:51:25;6.30;99.90
20204;DHT22;10261;49.010;12.034;2023-02-01T05:52:27;6.30;99.90
20204;DHT22;10261;49.010;12.034;2023-02-01T05:53:30;6.30;99.90
20204;DHT22;10261;49.010;12.034;2023-02-01T05:54:32;6.30;99.90
20204;DHT22;10261;49.010;12.034;2023-02-01T05:55:36;6.30;99.90
20204;DHT22;10261;49.010;12.034;2023-02-01T05:56:39;6.30;99.90
20204;DHT22;10261;49.010;12.034;2023-02-01T05:57:42;6.30;99.90
20204;DHT22;10261;49.010;12.034;2023-02-01T05:58:44;6.30;99.90
20204;DHT22;10261;49.010;12.034;2023-02-01T05:59:47;6.30;99.90
20204;DHT22;10261;49.010;12.034;2023-02-01T06:00:50;6.30;99.90
20204;DHT22;10261;49.010;12.034;2023-02-01T06:01:53;6.30;99.90
20204;DHT22;10261;49.010;12.034;2023-02-01T06:02:56;6.30;99.90
20204;DHT22;10261;49.010;12.034;2023-02-01T06:03:58;6.30;99.90
20204;DHT22;10261;49.010;12.034;2023-02-01T06:05:16;6.20;99.90
20204;DHT22;10261;49.010;12.034;2023-02-01T06:06:18;6.20;99.90
20204;DHT22;10261;49.010;12.034;2023-02-01T06:07:21;6.20;99.90
20204;DHT22;10261;49.010;12.034;2023-02-01T06:08:23;6.20;99.90
20204;DHT22;10261;49.010;12.034;2023-02-01T06:09:27;6.20;99.90
20204;DHT22;10261;49.010;12.034;2023-02-01T06:10:29;6.10;99.90
20204;DHT22;10261;49.010;12.034;2023-02-01T06:11:32;6.10;99.90
20204;DHT22;10261;49.010;12.034;2023-02-01T06:12:36;6.20;99.90
20204;DHT22;10261;49.010;12.034;2023-02-01T06:13:39;6.10;99.90
20204;DHT22;10261;49.010;12.034;2023-02-01T06:14:41;6.10;99.90
20204;DHT22;10261;49.010;12.034;2023-02-01T06:15:44;6.10;99.90
20204;DHT22;10261;49.010;12.034;2023-02-01T06:16:47;6.10;99.90
20204;DHT22;10261;49.010;12.034;2023-02-01T06:17:50;6.10;99.90
20204;DHT22;10261;49.010;12.034;2023-02-01T06:18:52;6.10;99.90
20204;DHT22;10261;49.010;12.034;2023-02-01T06:19:55;6.00;99.90
20204;DHT22;10261;49.010;12.034;2023-02-01T06:20:58;6.10;99.90
20204;DHT22;10261;49.010;12.034;2023-02-01T06:22:01;6.10;99.90
20204;DHT22;10261;49.010;12.034;2023-02-01T06:23:03;6.10;99.90
20204;DHT22;10261;49.010;12.034;2023-02-01T06:24:08;6.10;99.90
20204;DHT22;10261;49.010;12.034;2023-02-01T06:25:10;6.10;99.90
20204;DHT22;10261;49.010;12.034;2023-02-01T06:26:13;6.10;99.90
20204;DHT22;10261;49.010;12.034;2023-02-01T06:27:15;6.10;99.90
20204;DHT22;10261;49.010;12.034;2023-02-01T06:28:19;6.10;99.90
20204;DHT22;10261;49.010;12.034;2023-02-01T06:29:21;6.10;99.90
20204;DHT22;10261;49.010;12.034;2023-02-01T06:30:24;6.10;99.90
20204;DHT22;10261;49.010;12.034;2023-02-01T06:31:35;6.10;99.90
20204;DHT22;10261;49.010;12.034;2023-02-01T06:32:52;6.10;99.90
20204;DHT22;10261;49.010;12.034;2023-02-01T06:33:55;6.00;99.90
20204;DHT22;10261;49.010;12.034;2023-02-01T06:34:58;6.00;99.90
20204;DHT22;10261;49.010;12.034;2023-02-01T06:36:02;6.00;99.90
20204;DHT22;10261;49.010;12.034;2023-02-01T06:37:05;6.00;99.90
20204;DHT22;10261;49.010;12.034;2023-02-01T06:38:08;6.10;99.90
20204;DHT22;10261;49.010;12.034;2023-02-01T06:39:10;6.10;99.90
20204;DHT22;10261;49.010;12.034;2023-02-01T06:40:17;6.00;99.90
20204;DHT22;10261;49.010;12.034;2023-02-01T06:41:19;6.00;99.90
20204;DHT22;10261;49.010;12.034;2023-02-01T06:42:23;6.00;99.90
20204;DHT22;10261;49.010;12.034;2023-02-01T06:43:27;6.00;99.90
20204;DHT22;10261;49.010;12.034;2023-02-01T06:44:30;6.00;99.90
20204;DHT22;10261;49.010;12.034;2023-02-01T06:45:34;6.00;99.90
20204;DHT22;10261;49.010;12.034;2023-02-01T06:46:35;6.00;99.90
20204;DHT22;10261;49.010;12.034;2023-02-01T06:47:39;6.10;99.90
20204;DHT22;10261;49.010;12.034;2023-02-01T06:48:41;6.10;99.90
20204;DHT22;10261;49.010;12.034;2023-02-01T06:49:44;6.00;99.90
20204;DHT22;10261;49.010;12.034;2023-02-01T06:50:46;6.00;99.90
20204;DHT22;10261;49.010;12.034;2023-02-01T06:51:49;6.00;99.90
20204;DHT22;10261;49.010;12.034;2023-02-01T06:52:51;6.10;99.90
20204;DHT22;10261;49.010;12.034;2023-02-01T06:53:54;6.10;99.90
20204;DHT22;10261;49.010;12.034;2023-02-01T06:54:57;6.10;99.90
20204;DHT22;10261;49.010;12.034;2023-02-01T06:56:01;6.20;99.90
20204;DHT22;10261;49.010;12.034;2023-02-01T06:57:04;5.90;99.90